Canadian, TX

4:09 AM CDT on October 01, 2016 (GMT -0500)
Hemphill County

Weather History for KHHF - February, 2014

Change the Weather History Date:

Sunday, February 2, 2014

  Actual Average (KPPA) Record (KPPA)
Temperature  
Mean Temperature 27 °F -  
Max Temperature 35 °F 48 °F 68 °F (1984)
Min Temperature 19 °F 23 °F -4 °F (2011)
Degree Days  
Heating Degree Days 38    
Moisture  
Dew Point 10 °F    
Average Humidity 54    
Maximum Humidity 83    
Minimum Humidity 27    
Precipitation  
Precipitation 0.00 in - - ()
Sea Level Pressure  
Sea Level Pressure 30.22 in    
Wind  
Wind Speed 8 mph (NE)    
Max Wind Speed 14 mph    
Max Gust Speed 18 mph    
Visibility 10 miles    
Events Snow    
Averages and records for this station are not official NWS values.
T = Trace of Precipitation, MM = Missing Value Source: NWS Daily Summary

Daily Weather History Graph

Daily Weather History Graph

Search for Another Location

Airport or City:

Trip Planner

Search our weather history database for the weather conditions in past years. The results will help you decide how hot, cold, wet, or windy it might be!

Date:

Astronomy

Feb. 02, 2014 Rise Set
Actual Time 7:41 AM CST 6:09 PM CST
Civil Twilight 7:14 AM CST 6:36 PM CST
Nautical Twilight 6:43 AM CST 7:07 PM CST
Astronomical Twilight 6:13 AM CST 7:37 PM CST
Moon 9:16 AM CST (2/2) 9:47 PM CST (2/2)
Length of Visible Light 11h 22m
Length of Day
10h 28m
Waxing Crescent, 11% of the Moon is Illuminated
Feb 2
Waxing Crescent
Feb 6
First Quarter
Feb 14
Full
Feb 22
Last Quarter
Mar 1
New

Hourly Weather History & Observations

Time (CST) Temp. Windchill Dew Point Humidity Pressure Visibility Wind Dir Wind Speed Gust Speed Precip Events Conditions
12:15 AM 25.5 °F 17.8 °F 21.0 °F 83% 30.20 in 7.0 mi NE 6.9 mph - N/A Snow Light Snow
12:35 AM 25.3 °F 14.1 °F 19.8 °F 79% 30.21 in 10.0 mi NNE 12.7 mph - N/A   Overcast
12:55 AM 24.6 °F 14.4 °F 18.5 °F 78% 30.21 in 10.0 mi NNE 10.4 mph - N/A   Overcast
1:15 AM 24.4 °F 13.5 °F 19.0 °F 80% 30.21 in 10.0 mi NNE 11.5 mph - N/A   Overcast
1:35 AM 23.9 °F 13.5 °F 18.5 °F 80% 30.21 in 10.0 mi North 10.4 mph - N/A   Overcast
1:55 AM 23.7 °F 14.0 °F 17.6 °F 77% 30.21 in 10.0 mi North 9.2 mph 16.1 mph N/A   Overcast
2:15 AM 23.7 °F 15.6 °F 18.1 °F 79% 30.23 in 10.0 mi North 6.9 mph - N/A   Overcast
2:35 AM 23.0 °F 11.7 °F 17.2 °F 79% 30.22 in 10.0 mi North 11.5 mph - N/A   Overcast
2:55 AM 22.1 °F 10.0 °F 16.5 °F 79% 30.21 in 10.0 mi North 12.7 mph - N/A   Overcast
3:15 AM 21.7 °F 9.0 °F 16.0 °F 78% 30.20 in 10.0 mi North 13.8 mph 18.4 mph N/A   Overcast
3:35 AM 21.7 °F 10.2 °F 15.8 °F 78% 30.20 in 10.0 mi North 11.5 mph 18.4 mph N/A   Overcast
3:55 AM 21.7 °F 10.8 °F 15.6 °F 77% 30.21 in 10.0 mi North 10.4 mph - N/A   Overcast
4:15 AM 21.6 °F 12.1 °F 15.8 °F 78% 30.21 in 10.0 mi NNE 8.1 mph - N/A   Overcast
4:35 AM 21.2 °F 8.9 °F 15.1 °F 77% 30.20 in 10.0 mi North 12.7 mph 16.1 mph N/A   Overcast
4:55 AM 21.2 °F 9.5 °F 15.4 °F 78% 30.20 in 10.0 mi North 11.5 mph 16.1 mph N/A   Overcast
5:15 AM 21.0 °F 10.6 °F 14.9 °F 77% 30.21 in 10.0 mi North 9.2 mph - N/A   Overcast
5:35 AM 21.0 °F 9.3 °F 14.7 °F 77% 30.23 in 10.0 mi North 11.5 mph - N/A   Mostly Cloudy
5:55 AM 20.8 °F 9.7 °F 14.0 °F 75% 30.22 in 10.0 mi NNE 10.4 mph - N/A   Scattered Clouds
6:15 AM 20.7 °F 9.5 °F 14.0 °F 75% 30.21 in 10.0 mi North 10.4 mph - N/A   Clear
6:35 AM 20.3 °F 9.0 °F 13.3 °F 74% 30.22 in 10.0 mi North 10.4 mph 16.1 mph N/A   Clear
6:55 AM 20.1 °F 11.3 °F 13.1 °F 74% 30.21 in 10.0 mi North 6.9 mph - N/A   Clear
7:15 AM 19.9 °F 10.1 °F 13.1 °F 75% 30.22 in 10.0 mi North 8.1 mph - N/A   Clear
7:35 AM 20.1 °F 12.3 °F 13.1 °F 74% 30.23 in 10.0 mi North 5.8 mph - N/A   Clear
7:55 AM 19.8 °F 10.8 °F 12.7 °F 74% 30.23 in 10.0 mi North 6.9 mph - N/A   Clear
8:15 AM 19.4 °F 10.4 °F 12.6 °F 75% 30.26 in 10.0 mi NNE 6.9 mph - N/A   Clear
8:35 AM 19.2 °F 10.2 °F 12.6 °F 75% 30.27 in 10.0 mi North 6.9 mph - N/A   Clear
8:55 AM 19.2 °F 7.7 °F 12.9 °F 76% 30.26 in 10.0 mi North 10.4 mph - N/A   Clear
9:15 AM 20.1 °F 8.8 °F 13.1 °F 74% 30.28 in 10.0 mi NNE 10.4 mph - N/A   Clear
9:35 AM 21.2 °F 9.5 °F 13.8 °F 73% 30.28 in 10.0 mi NNE 11.5 mph - N/A   Clear
9:55 AM 22.5 °F 11.7 °F 13.1 °F 67% 30.29 in 10.0 mi NE 10.4 mph - N/A   Clear
10:15 AM 22.8 °F 12.9 °F 11.8 °F 63% 30.29 in 10.0 mi NNE 9.2 mph - N/A   Clear
10:35 AM 23.5 °F 15.4 °F 11.5 °F 60% 30.30 in 10.0 mi NE 6.9 mph - N/A   Clear
10:55 AM 25.7 °F 16.4 °F 12.4 °F 57% 30.29 in 10.0 mi NNE 9.2 mph - N/A   Clear
11:15 AM 26.6 °F 18.2 °F 11.1 °F 52% 30.28 in 10.0 mi NNE 8.1 mph - N/A   Clear
11:35 AM 27.5 °F 19.3 °F 10.4 °F 49% 30.28 in 10.0 mi NE 8.1 mph - N/A   Clear
11:55 AM 28.2 °F 21.0 °F 9.7 °F 46% 30.28 in 10.0 mi NE 6.9 mph - N/A   Clear
12:15 PM 28.4 °F 22.2 °F 8.2 °F 43% 30.27 in 10.0 mi ENE 5.8 mph - N/A   Clear
12:35 PM 29.7 °F 22.0 °F 8.1 °F 40% 30.26 in 10.0 mi NE 8.1 mph - N/A   Clear
12:55 PM 30.4 °F - 6.8 °F 37% 30.25 in 10.0 mi Calm Calm - N/A   Clear
1:15 PM 31.1 °F 25.4 °F 6.1 °F 35% 30.23 in 10.0 mi North 5.8 mph - N/A   Clear
1:35 PM 32.0 °F 28.7 °F 5.5 °F 33% 30.22 in 10.0 mi NNW 3.5 mph - N/A   Clear
1:55 PM 32.2 °F - 5.2 °F 32% 30.20 in 10.0 mi Calm Calm - N/A   Clear
2:15 PM 33.3 °F 28.9 °F 5.0 °F 30% 30.21 in 10.0 mi NNE 4.6 mph - N/A   Scattered Clouds
2:35 PM 32.5 °F - 4.8 °F 31% 30.19 in 10.0 mi Calm Calm - N/A   Clear
2:55 PM 34.3 °F 31.4 °F 5.4 °F 30% 30.18 in 10.0 mi NNE 3.5 mph - N/A   Clear
3:15 PM 33.8 °F - 4.6 °F 29% 30.18 in 10.0 mi Calm Calm - N/A   Clear
3:35 PM 34.9 °F - 5.2 °F 29% 30.18 in 10.0 mi Calm Calm - N/A   Clear
3:55 PM 35.6 °F 32.8 °F 5.2 °F 28% 30.18 in 10.0 mi ENE 3.5 mph - N/A   Scattered Clouds
4:15 PM 35.4 °F - 4.3 °F 27% 30.18 in 10.0 mi Calm Calm - N/A   Scattered Clouds
4:35 PM 35.6 °F - 4.5 °F 27% 30.18 in 10.0 mi Calm Calm - N/A   Clear
4:55 PM 35.8 °F 33.0 °F 5.0 °F 28% 30.18 in 10.0 mi ESE 3.5 mph - N/A   Clear
5:15 PM 35.6 °F 30.7 °F 4.6 °F 27% 30.17 in 10.0 mi ESE 5.8 mph - N/A   Clear
5:35 PM 34.7 °F 30.6 °F 5.0 °F 29% 30.18 in 10.0 mi ESE 4.6 mph - N/A   Clear
5:55 PM 33.6 °F 28.4 °F 4.8 °F 30% 30.18 in 10.0 mi ESE 5.8 mph - N/A   Clear
6:15 PM 32.0 °F 26.4 °F 5.0 °F 32% 30.18 in 10.0 mi SE 5.8 mph - N/A   Clear
6:35 PM 31.6 °F 25.1 °F 5.5 °F 33% 30.18 in 10.0 mi SE 6.9 mph - N/A   Clear
6:55 PM 28.8 °F 23.7 °F 4.6 °F 36% 30.19 in 10.0 mi SE 4.6 mph - N/A   Clear
7:15 PM 27.3 °F 20.9 °F 4.8 °F 38% 30.20 in 10.0 mi SSE 5.8 mph - N/A   Clear
7:35 PM 26.6 °F 21.2 °F 4.6 °F 39% 30.19 in 10.0 mi SSE 4.6 mph - N/A   Clear
7:55 PM 25.3 °F 17.6 °F 4.6 °F 41% 30.19 in 10.0 mi SE 6.9 mph - N/A   Clear
8:15 PM 29.5 °F 21.8 °F 4.5 °F 35% 30.19 in 10.0 mi ESE 8.1 mph - N/A   Clear
8:35 PM 28.6 °F 19.9 °F 4.1 °F 35% 30.19 in 10.0 mi SE 9.2 mph - N/A   Clear
8:55 PM 27.5 °F 18.6 °F 3.2 °F 35% 30.18 in 10.0 mi SE 9.2 mph - N/A   Clear
9:15 PM 26.2 °F 16.4 °F 2.3 °F 36% 30.18 in 10.0 mi SE 10.4 mph - N/A   Clear
9:35 PM 25.0 °F 16.3 °F 1.9 °F 37% 30.19 in 10.0 mi SE 8.1 mph - N/A   Clear
9:55 PM 25.5 °F 17.8 °F 1.9 °F 36% 30.20 in 10.0 mi SE 6.9 mph - N/A   Clear
10:15 PM 22.8 °F 18.2 °F 1.4 °F 40% 30.21 in 10.0 mi SSE 3.5 mph - N/A   Clear
10:35 PM 20.8 °F - 1.8 °F 44% 30.21 in 10.0 mi Calm Calm - N/A   Clear
10:55 PM 21.2 °F - 2.3 °F 44% 30.21 in 10.0 mi Calm Calm - N/A   Clear
11:15 PM 22.5 °F - 1.9 °F 41% 30.22 in 10.0 mi Calm Calm - N/A   Clear
11:35 PM 19.8 °F 13.2 °F 1.9 °F 46% 30.22 in 10.0 mi WSW 4.6 mph - N/A   Clear
11:55 PM 21.6 °F - 1.9 °F 43% 30.22 in 10.0 mi Calm Calm - N/A   Clear